Time;durP1;ratioP1;P1;durP2;ratioP2;P2;SDS_P1;SDS_P2;PMS_P1;PMS_P2;Temp;Humidity;BMP_temperature;BMP_pressure;BME280_temperature;BME280_humidity;BME280_pressure;Samples;Min_cycle;Max_cycle;Signal;HPM_P1;HPM_P2
2022/03/27 00:01:30;;;;;;;12.65;2.92;;;5.90;99.90;;;;;;5071156;28;20037;-66
2022/03/27 00:03:56;;;;;;;13.35;2.85;;;5.90;99.90;;;;;;5065039;28;20089;-66
2022/03/27 00:06:21;;;;;;;20.27;3.40;;;5.80;99.90;;;;;;5066966;28;20040;-66
2022/03/27 00:08:47;;;;;;;33.05;4.10;;;5.80;99.90;;;;;;5064098;28;20482;-66
2022/03/27 00:11:26;;;;;;;16.73;3.45;;;5.80;99.90;;;;;;5072073;28;20029;-66
2022/03/27 00:13:59;;;;;;;22.27;3.95;;;5.80;99.90;;;;;;5085338;28;20379;-66
2022/03/27 00:16:26;;;;;;;24.35;3.50;;;5.80;99.90;;;;;;5085779;28;20040;-66
2022/03/27 00:18:52;;;;;;;18.48;2.78;;;5.80;99.90;;;;;;5086101;28;20410;-66
2022/03/27 00:21:21;;;;;;;22.20;3.85;;;5.60;99.90;;;;;;5085038;28;20067;-66
2022/03/27 00:23:52;;;;;;;16.58;3.00;;;5.60;99.90;;;;;;5085666;28;20066;-66
2022/03/27 00:26:19;;;;;;;32.90;4.10;;;5.50;99.90;;;;;;5085502;28;20044;-66
2022/03/27 00:28:46;;;;;;;23.23;3.88;;;5.50;99.90;;;;;;5067361;28;20413;-66
2022/03/27 00:31:12;;;;;;;25.73;3.60;;;5.50;99.90;;;;;;5085317;28;20082;-66
2022/03/27 00:33:40;;;;;;;39.53;4.68;;;5.60;99.90;;;;;;5065756;28;20120;-66
2022/03/27 00:36:08;;;;;;;26.42;3.70;;;5.60;99.90;;;;;;5079952;28;20451;-66
2022/03/27 00:38:34;;;;;;;29.90;3.58;;;5.60;99.90;;;;;;5083073;28;20110;-66
2022/03/27 00:41:01;;;;;;;22.63;3.67;;;5.60;99.90;;;;;;5063299;28;20064;-65
2022/03/27 00:43:27;;;;;;;32.45;3.63;;;5.70;99.90;;;;;;5082848;28;20043;-66
2022/03/27 00:45:54;;;;;;;29.58;3.92;;;5.70;99.90;;;;;;5086670;28;20040;-66
2022/03/27 00:48:21;;;;;;;20.65;3.17;;;5.70;99.90;;;;;;5085526;28;20636;-66
2022/03/27 00:50:48;;;;;;;30.75;3.90;;;5.70;99.90;;;;;;5084216;28;20048;-66
2022/03/27 00:53:14;;;;;;;29.70;3.22;;;5.60;99.90;;;;;;5083938;28;20063;-66
2022/03/27 00:55:40;;;;;;;30.33;3.88;;;5.50;99.90;;;;;;5072100;28;20145;-66
2022/03/27 00:58:06;;;;;;;28.90;3.83;;;5.60;99.90;;;;;;5085865;28;20058;-66
2022/03/27 01:01:09;;;;;;;45.97;4.20;;;5.70;99.90;;;;;;5079933;28;20047;-66
2022/03/27 01:03:35;;;;;;;45.92;4.53;;;5.80;99.90;;;;;;5098647;28;20390;-66
2022/03/27 01:06:02;;;;;;;44.72;4.75;;;5.80;99.90;;;;;;5086162;28;20620;-66
2022/03/27 01:11:17;;;;;;;43.53;4.78;;;5.90;99.90;;;;;;5071075;28;20106;-66
2022/03/27 01:14:03;;;;;;;61.17;5.20;;;6.00;99.90;;;;;;5076193;28;20044;-66
2022/03/27 01:16:44;;;;;;;39.63;4.18;;;6.00;99.90;;;;;;5083322;28;20458;-66
2022/03/27 01:19:15;;;;;;;40.38;4.60;;;6.00;99.90;;;;;;5072262;28;20048;-66
2022/03/27 01:21:43;;;;;;;45.55;4.03;;;6.00;99.90;;;;;;5073138;28;20177;-66
2022/03/27 01:24:09;;;;;;;50.90;4.20;;;5.90;99.90;;;;;;5067710;28;20052;-66
2022/03/27 01:26:37;;;;;;;38.78;4.85;;;5.90;99.90;;;;;;5085031;28;20054;-66
2022/03/27 01:29:03;;;;;;;52.25;5.32;;;5.90;99.90;;;;;;5086333;28;20040;-66
2022/03/27 01:31:30;;;;;;;41.85;4.90;;;6.00;99.90;;;;;;5077000;28;20094;-66
2022/03/27 01:33:55;;;;;;;62.15;6.10;;;6.00;99.90;;;;;;5084097;28;20090;-66
2022/03/27 01:36:28;;;;;;;64.20;6.43;;;6.00;99.90;;;;;;5054785;28;20044;-66
2022/03/27 01:38:56;;;;;;;46.67;4.97;;;6.10;99.90;;;;;;5083080;28;20399;-66
2022/03/27 01:41:22;;;;;;;45.45;4.80;;;6.10;99.90;;;;;;5073488;28;20059;-66
2022/03/27 01:43:49;;;;;;;55.50;6.20;;;6.10;99.90;;;;;;5075847;28;20040;-66
2022/03/27 01:46:15;;;;;;;47.75;5.10;;;6.10;99.90;;;;;;5075365;28;20059;-66
2022/03/27 01:48:41;;;;;;;53.90;6.57;;;6.20;99.90;;;;;;5080596;28;20432;-66
2022/03/27 01:51:08;;;;;;;56.72;7.05;;;6.20;99.90;;;;;;5088164;28;20051;-66
2022/03/27 01:53:36;;;;;;;44.58;5.93;;;6.30;99.90;;;;;;5074967;28;20552;-66
2022/03/27 01:56:02;;;;;;;51.30;6.45;;;6.30;99.90;;;;;;5089049;28;20108;-66
2022/03/27 01:58:28;;;;;;;53.30;7.63;;;6.30;99.90;;;;;;5088986;28;20044;-66
2022/03/27 02:00:54;;;;;;;46.47;6.43;;;6.30;99.90;;;;;;5087588;28;20083;-66
2022/03/27 02:03:19;;;;;;;48.88;7.28;;;6.20;99.90;;;;;;5079390;28;20036;-66
2022/03/27 02:05:45;;;;;;;50.55;7.10;;;6.30;99.90;;;;;;5087279;28;20509;-66
2022/03/27 02:08:14;;;;;;;66.28;7.72;;;6.30;99.90;;;;;;5087541;28;20086;-66
2022/03/27 02:10:41;;;;;;;63.22;9.38;;;6.30;99.90;;;;;;5074427;28;20106;-66
2022/03/27 02:13:13;;;;;;;47.50;7.13;;;6.20;99.90;;;;;;5086079;28;20036;-66
2022/03/27 02:15:39;;;;;;;65.72;8.68;;;6.20;99.90;;;;;;5082342;28;20048;-66
2022/03/27 02:18:06;;;;;;;69.65;8.25;;;6.20;99.90;;;;;;5087640;28;20048;-66
2022/03/27 02:20:32;;;;;;;56.65;8.07;;;6.20;99.90;;;;;;5088374;28;20043;-66
2022/03/27 02:22:57;;;;;;;81.43;9.27;;;6.10;99.90;;;;;;5086541;28;20056;-66
2022/03/27 02:25:23;;;;;;;72.05;10.40;;;6.10;99.90;;;;;;5088688;28;20409;-66
2022/03/27 02:27:49;;;;;;;63.35;8.10;;;6.10;99.90;;;;;;5073135;28;20102;-66
2022/03/27 02:30:15;;;;;;;57.85;7.72;;;6.10;99.90;;;;;;5081205;28;20071;-66
2022/03/27 02:32:41;;;;;;;62.45;7.55;;;6.10;99.90;;;;;;5073782;28;20396;-66
2022/03/27 02:35:07;;;;;;;57.72;7.47;;;6.00;99.90;;;;;;5085456;28;20489;-66
2022/03/27 02:37:32;;;;;;;73.55;7.97;;;6.00;99.90;;;;;;5088569;28;20044;-66
2022/03/27 02:39:58;;;;;;;55.45;7.65;;;6.00;99.90;;;;;;5084276;28;20040;-66
2022/03/27 02:42:24;;;;;;;75.13;8.60;;;6.00;99.90;;;;;;5087055;28;20048;-66
2022/03/27 02:44:49;;;;;;;53.25;7.93;;;5.90;99.90;;;;;;5086196;28;20048;-66
2022/03/27 02:47:16;;;;;;;67.53;8.07;;;5.80;99.90;;;;;;5074993;28;20447;-66
2022/03/27 02:49:42;;;;;;;70.03;8.48;;;5.90;99.90;;;;;;5088122;28;20044;-66
2022/03/27 02:52:07;;;;;;;81.15;8.13;;;5.80;99.90;;;;;;5087563;28;20088;-66
2022/03/27 02:54:33;;;;;;;73.15;8.15;;;5.80;99.90;;;;;;5088155;28;20619;-66
2022/03/27 02:56:59;;;;;;;66.50;7.68;;;5.90;99.90;;;;;;5087164;28;20047;-66
2022/03/27 02:59:25;;;;;;;80.75;8.38;;;5.80;99.90;;;;;;5087872;28;20079;-66
2022/03/27 03:01:51;;;;;;;88.05;10.05;;;5.90;99.90;;;;;;5076820;28;20033;-66
2022/03/27 03:04:17;;;;;;;91.45;10.50;;;5.90;99.90;;;;;;5087341;28;20489;-66
2022/03/27 03:06:43;;;;;;;79.10;7.70;;;5.90;99.90;;;;;;5088343;28;20043;-66
2022/03/27 03:09:10;;;;;;;98.03;9.48;;;5.90;99.90;;;;;;5085851;28;20039;-66
2022/03/27 03:11:36;;;;;;;97.35;9.90;;;5.90;99.90;;;;;;5079613;28;20295;-66
2022/03/27 03:14:02;;;;;;;78.15;8.75;;;6.00;99.90;;;;;;5074741;28;20078;-66
2022/03/27 03:16:29;;;;;;;95.20;9.80;;;6.00;99.90;;;;;;5086062;28;20074;-66
2022/03/27 03:18:55;;;;;;;77.72;8.48;;;6.10;99.90;;;;;;5086682;28;20402;-66
2022/03/27 03:21:21;;;;;;;87.03;8.75;;;6.10;99.90;;;;;;5086801;28;20032;-66
2022/03/27 03:23:47;;;;;;;94.05;10.88;;;6.10;99.90;;;;;;5087076;28;20087;-66
2022/03/27 03:26:13;;;;;;;98.93;9.98;;;6.10;99.90;;;;;;5087370;28;20036;-66
2022/03/27 03:28:38;;;;;;;92.97;9.50;;;6.00;99.90;;;;;;5087295;28;20044;-66
2022/03/27 03:31:05;;;;;;;76.55;8.95;;;6.00;99.90;;;;;;5083914;28;20082;-66
2022/03/27 03:33:31;;;;;;;77.47;9.52;;;6.00;99.90;;;;;;5085222;28;20040;-66
2022/03/27 03:35:57;;;;;;;90.65;9.23;;;6.00;99.90;;;;;;5086340;28;20044;-66
2022/03/27 03:38:23;;;;;;;91.00;11.00;;;6.00;99.90;;;;;;5080965;28;20105;-66
2022/03/27 03:40:49;;;;;;;80.05;9.30;;;6.00;99.90;;;;;;5068321;28;20070;-66
2022/03/27 03:43:14;;;;;;;73.47;10.07;;;6.00;99.90;;;;;;5073271;28;20079;-66
2022/03/27 03:45:41;;;;;;;76.47;9.40;;;6.00;99.90;;;;;;5098528;28;20053;-66
2022/03/27 03:48:07;;;;;;;96.63;10.88;;;5.90;99.90;;;;;;5066923;28;20056;-66
2022/03/27 03:50:35;;;;;;;90.00;9.45;;;5.90;99.90;;;;;;5078851;28;20430;-66
2022/03/27 03:53:02;;;;;;;87.03;9.25;;;5.90;99.90;;;;;;5099918;28;20494;-66
2022/03/27 03:55:28;;;;;;;90.10;9.45;;;5.90;99.90;;;;;;5067581;28;20383;-66
2022/03/27 03:57:56;;;;;;;103.03;10.25;;;5.90;99.90;;;;;;5064394;28;20055;-66
2022/03/27 04:00:23;;;;;;;86.88;9.45;;;5.90;99.90;;;;;;5066126;28;20040;-66
2022/03/27 04:02:49;;;;;;;85.05;8.57;;;5.90;99.90;;;;;;5065730;28;20052;-66
2022/03/27 04:05:15;;;;;;;87.90;9.48;;;5.80;99.90;;;;;;5098279;28;20044;-66
2022/03/27 04:07:40;;;;;;;88.55;9.88;;;5.80;99.90;;;;;;5066308;28;20072;-66
2022/03/27 04:10:07;;;;;;;70.50;8.63;;;5.70;99.90;;;;;;5059783;28;20051;-66
2022/03/27 04:12:32;;;;;;;82.85;8.52;;;5.70;99.90;;;;;;5081826;28;20101;-66
2022/03/27 04:14:58;;;;;;;74.45;8.65;;;5.60;99.90;;;;;;5085045;28;20036;-66
2022/03/27 04:17:24;;;;;;;83.47;9.80;;;5.60;99.90;;;;;;5086399;28;20119;-66
2022/03/27 04:19:50;;;;;;;89.20;10.35;;;5.50;99.90;;;;;;5084258;28;20392;-66
2022/03/27 04:22:15;;;;;;;83.72;9.30;;;5.50;99.90;;;;;;5085708;28;20093;-66
2022/03/27 04:24:41;;;;;;;81.68;9.30;;;5.50;99.90;;;;;;5085058;28;20040;-66
2022/03/27 04:27:07;;;;;;;76.88;8.15;;;5.40;99.90;;;;;;5075161;28;20044;-66
2022/03/27 04:29:33;;;;;;;77.63;8.98;;;5.50;99.90;;;;;;5081583;28;20561;-66
2022/03/27 04:31:58;;;;;;;77.35;8.25;;;5.50;99.90;;;;;;5084744;28;20058;-66
2022/03/27 04:34:24;;;;;;;83.97;8.35;;;5.50;99.90;;;;;;5085961;28;20040;-66
2022/03/27 04:36:50;;;;;;;88.78;9.65;;;5.40;99.90;;;;;;5085188;28;20504;-66
2022/03/27 04:39:16;;;;;;;79.90;8.45;;;5.40;99.90;;;;;;5086667;28;20039;-66
2022/03/27 04:41:42;;;;;;;92.45;9.63;;;5.50;99.90;;;;;;5085228;28;20036;-66
2022/03/27 04:44:08;;;;;;;95.82;10.18;;;5.50;99.90;;;;;;5085083;28;20452;-66
2022/03/27 04:46:34;;;;;;;87.88;8.57;;;5.50;99.90;;;;;;5085031;28;20056;-66
2022/03/27 04:49:01;;;;;;;93.90;8.85;;;5.50;99.90;;;;;;5084543;28;20505;-66
2022/03/27 04:51:27;;;;;;;81.45;9.25;;;5.60;99.90;;;;;;5064952;28;20500;-66
2022/03/27 04:53:53;;;;;;;88.25;9.02;;;5.60;99.90;;;;;;5066991;28;20539;-66
2022/03/27 04:56:19;;;;;;;82.60;9.93;;;5.60;99.90;;;;;;5077921;28;20106;-66
2022/03/27 04:58:45;;;;;;;77.38;8.77;;;5.70;99.90;;;;;;5056165;28;20036;-66
2022/03/27 05:01:11;;;;;;;84.65;10.52;;;5.50;99.90;;;;;;5084209;28;20443;-66
2022/03/27 05:03:37;;;;;;;86.63;9.50;;;5.70;99.90;;;;;;5081337;28;20048;-66
2022/03/27 05:06:02;;;;;;;77.32;10.02;;;5.70;99.90;;;;;;5077712;28;20067;-66
2022/03/27 05:08:28;;;;;;;82.22;8.60;;;5.80;99.90;;;;;;5065015;28;20063;-66
2022/03/27 05:10:54;;;;;;;69.80;8.27;;;5.70;99.90;;;;;;5070683;28;20041;-66
2022/03/27 05:13:20;;;;;;;84.90;9.73;;;5.80;99.90;;;;;;5085948;28;20046;-66
2022/03/27 05:15:46;;;;;;;67.72;10.20;;;5.80;99.90;;;;;;5085037;28;20394;-66
2022/03/27 05:18:12;;;;;;;80.45;8.93;;;5.80;99.90;;;;;;5085009;28;20055;-66
2022/03/27 05:20:39;;;;;;;90.03;10.30;;;5.90;99.90;;;;;;5084838;28;20044;-66
2022/03/27 05:23:06;;;;;;;73.57;8.90;;;5.90;99.90;;;;;;5066666;28;20578;-66
2022/03/27 05:25:40;;;;;;;59.30;8.15;;;6.00;99.90;;;;;;5076125;28;20530;-66
2022/03/27 05:28:08;;;;;;;96.55;10.88;;;6.00;99.90;;;;;;5086805;28;20097;-66
2022/03/27 05:30:33;;;;;;;83.40;9.20;;;6.00;99.90;;;;;;5071709;28;20052;-66
2022/03/27 05:32:59;;;;;;;89.90;9.27;;;5.90;99.90;;;;;;5080606;28;20048;-66
2022/03/27 05:35:25;;;;;;;85.38;11.25;;;5.90;99.90;;;;;;5088358;28;20042;-66
2022/03/27 05:37:52;;;;;;;82.55;9.18;;;5.90;99.90;;;;;;5088657;28;20044;-66
2022/03/27 05:40:22;;;;;;;85.20;9.68;;;5.80;99.90;;;;;;5089732;28;20052;-66
2022/03/27 05:42:49;;;;;;;76.53;9.15;;;5.80;99.90;;;;;;5088549;28;20075;-66
2022/03/27 05:45:15;;;;;;;71.20;10.02;;;5.70;99.90;;;;;;5083774;28;20478;-66
2022/03/27 05:47:42;;;;;;;75.30;9.02;;;5.70;99.90;;;;;;5080238;28;20083;-66
2022/03/27 05:50:09;;;;;;;84.85;10.52;;;5.70;99.90;;;;;;5088173;28;20040;-66
2022/03/27 05:52:35;;;;;;;86.28;9.30;;;5.70;99.90;;;;;;5089418;28;20107;-66
2022/03/27 05:55:01;;;;;;;91.53;9.10;;;5.70;99.90;;;;;;5085809;28;20119;-66
2022/03/27 05:57:26;;;;;;;79.63;8.73;;;5.80;99.90;;;;;;5088209;28;20093;-66
2022/03/27 05:59:53;;;;;;;76.97;10.02;;;5.80;99.90;;;;;;5088448;28;20032;-66
2022/03/27 06:02:18;;;;;;;72.05;9.05;;;5.90;99.90;;;;;;5075440;28;20090;-66
2022/03/27 06:04:44;;;;;;;78.47;9.90;;;5.90;99.90;;;;;;5099466;28;20041;-67
2022/03/27 06:07:10;;;;;;;75.07;10.05;;;5.90;99.90;;;;;;5067744;28;20037;-66
2022/03/27 06:09:36;;;;;;;97.82;11.77;;;6.00;99.90;;;;;;5071020;28;20127;-66
2022/03/27 06:12:04;;;;;;;91.20;9.82;;;6.10;99.90;;;;;;5079315;28;20489;-66
2022/03/27 06:14:30;;;;;;;78.88;10.27;;;6.30;99.90;;;;;;5088333;28;20493;-66
2022/03/27 06:16:57;;;;;;;73.75;9.60;;;6.40;99.90;;;;;;5087586;28;20086;-66
2022/03/27 06:19:22;;;;;;;93.00;10.68;;;6.40;99.90;;;;;;5088347;28;20072;-66
2022/03/27 06:21:49;;;;;;;90.28;10.60;;;6.40;99.90;;;;;;5080546;28;20080;-66
2022/03/27 06:24:15;;;;;;;89.47;10.30;;;6.50;99.90;;;;;;5082125;28;20063;-66
2022/03/27 06:26:41;;;;;;;79.32;8.75;;;6.50;99.90;;;;;;5087560;28;20074;-66
2022/03/27 06:29:09;;;;;;;82.53;10.13;;;6.60;99.90;;;;;;5088050;28;20130;-66
2022/03/27 06:31:36;;;;;;;74.22;10.35;;;6.60;99.90;;;;;;5087527;28;20048;-66
2022/03/27 06:34:01;;;;;;;72.25;9.70;;;6.70;99.90;;;;;;5087768;28;20036;-66
2022/03/27 06:36:27;;;;;;;66.72;9.52;;;6.60;99.90;;;;;;5082832;28;20070;-66
2022/03/27 06:38:53;;;;;;;72.68;9.25;;;6.70;99.90;;;;;;5067898;28;20469;-66
2022/03/27 06:41:18;;;;;;;66.93;8.48;;;6.70;99.90;;;;;;5100360;28;20040;-66
2022/03/27 06:43:44;;;;;;;70.57;9.07;;;6.90;99.90;;;;;;5082942;28;20052;-66
2022/03/27 06:46:15;;;;;;;72.47;9.05;;;6.90;99.90;;;;;;5074429;28;20040;-67
2022/03/27 06:48:40;;;;;;;71.75;9.27;;;6.90;99.90;;;;;;5072099;28;20094;-67
2022/03/27 06:51:06;;;;;;;71.78;9.98;;;6.90;99.90;;;;;;5072850;28;20056;-67
2022/03/27 06:53:32;;;;;;;56.72;8.23;;;7.00;99.90;;;;;;5067996;28;20029;-66
2022/03/27 06:55:58;;;;;;;74.00;9.40;;;7.00;99.90;;;;;;5067111;28;20423;-66
2022/03/27 06:58:23;;;;;;;64.47;8.57;;;7.00;99.90;;;;;;5067058;28;20044;-67
2022/03/27 07:03:33;;;;;;;60.78;8.73;;;7.00;99.90;;;;;;5062212;28;20057;-66
2022/03/27 07:05:59;;;;;;;75.47;8.95;;;7.10;99.90;;;;;;5067693;28;20383;-66
2022/03/27 07:08:25;;;;;;;61.50;9.38;;;7.10;99.90;;;;;;5066739;28;20106;-66
2022/03/27 07:10:51;;;;;;;71.28;10.15;;;7.20;99.90;;;;;;5068351;28;20526;-67
2022/03/27 07:13:18;;;;;;;65.55;9.00;;;7.30;99.90;;;;;;5087184;28;20040;-66
2022/03/27 07:15:45;;;;;;;73.30;9.35;;;7.20;99.90;;;;;;5087456;28;20097;-66
2022/03/27 07:18:11;;;;;;;69.07;9.48;;;7.20;99.90;;;;;;5063331;28;20119;-66
2022/03/27 07:20:43;;;;;;;62.35;7.13;;;7.30;99.90;;;;;;5086920;28;20128;-67
2022/03/27 07:23:14;;;;;;;64.20;9.10;;;7.40;99.90;;;;;;5087947;28;20036;-67
2022/03/27 07:25:43;;;;;;;73.05;10.23;;;7.40;99.90;;;;;;5086704;28;20497;-67
2022/03/27 07:28:10;;;;;;;70.40;9.85;;;7.60;99.90;;;;;;5082084;28;20037;-67
2022/03/27 07:30:37;;;;;;;72.70;10.18;;;7.60;99.90;;;;;;5070771;28;20578;-67
2022/03/27 07:33:03;;;;;;;67.35;9.40;;;7.60;99.90;;;;;;5068114;28;20544;-67
2022/03/27 07:35:32;;;;;;;59.33;8.50;;;7.60;99.90;;;;;;5086063;28;20028;-67
2022/03/27 07:37:59;;;;;;;56.53;7.78;;;7.70;99.90;;;;;;5084493;28;20036;-67
2022/03/27 07:40:25;;;;;;;68.10;9.65;;;7.70;99.90;;;;;;5072286;28;20482;-67
2022/03/27 07:42:51;;;;;;;62.17;9.10;;;7.70;99.90;;;;;;5084623;28;20044;-67
2022/03/27 07:45:19;;;;;;;65.35;9.50;;;7.80;99.90;;;;;;5082045;28;20222;-66
2022/03/27 07:47:46;;;;;;;66.70;9.07;;;7.70;99.90;;;;;;5076921;28;20060;-67
2022/03/27 07:50:12;;;;;;;58.10;8.60;;;7.70;99.90;;;;;;5072592;28;20069;-66
2022/03/27 07:52:39;;;;;;;66.03;9.45;;;7.80;99.90;;;;;;5087243;28;20052;-67
2022/03/27 07:55:06;;;;;;;54.85;9.55;;;7.80;99.90;;;;;;5084616;28;20122;-67
2022/03/27 07:57:32;;;;;;;54.20;8.77;;;7.80;99.90;;;;;;5087320;28;20048;-66
2022/03/27 07:59:58;;;;;;;60.05;8.45;;;7.80;99.90;;;;;;5080256;28;20044;-67
2022/03/27 08:02:24;;;;;;;59.72;8.27;;;8.00;99.90;;;;;;5070542;28;20040;-66
2022/03/27 08:04:50;;;;;;;70.28;9.75;;;8.10;99.90;;;;;;5064029;28;20055;-67
2022/03/27 08:07:16;;;;;;;57.15;8.93;;;8.10;99.90;;;;;;5113395;27;20115;-67
2022/03/27 08:09:42;;;;;;;69.07;9.10;;;8.10;99.90;;;;;;5064632;28;20057;-68
2022/03/27 08:12:09;;;;;;;67.90;9.65;;;8.00;99.90;;;;;;5065324;28;20290;-68
2022/03/27 08:14:39;;;;;;;77.55;11.73;;;8.10;99.90;;;;;;5066502;28;20045;-68
2022/03/27 08:17:06;;;;;;;55.15;8.95;;;8.20;99.90;;;;;;5069196;28;20533;-68
2022/03/27 08:19:33;;;;;;;51.13;8.43;;;8.30;99.90;;;;;;5080907;28;20357;-68
2022/03/27 08:22:01;;;;;;;59.20;8.65;;;8.40;99.90;;;;;;5080436;28;20036;-68
2022/03/27 08:24:27;;;;;;;65.57;10.63;;;8.50;99.90;;;;;;5067191;28;20048;-68
2022/03/27 08:26:56;;;;;;;51.05;8.25;;;8.50;99.90;;;;;;5070523;28;20020;-67
2022/03/27 08:29:33;;;;;;;54.50;8.07;;;8.40;99.90;;;;;;5064573;28;20425;-68
2022/03/27 08:32:01;;;;;;;60.50;9.75;;;8.70;99.90;;;;;;5063910;28;20414;-68
2022/03/27 08:34:28;;;;;;;46.88;7.43;;;8.80;99.90;;;;;;5065639;28;20036;-68
2022/03/27 08:36:55;;;;;;;49.88;8.18;;;8.60;99.90;;;;;;5064039;28;20039;-68
2022/03/27 08:39:22;;;;;;;62.88;9.35;;;8.80;99.90;;;;;;5065364;28;20048;-68
2022/03/27 08:41:51;;;;;;;58.78;9.80;;;8.90;99.90;;;;;;5098530;28;20041;-68
2022/03/27 08:44:21;;;;;;;64.40;8.77;;;8.90;99.90;;;;;;5065409;28;20052;-68
2022/03/27 08:46:49;;;;;;;66.55;9.95;;;8.90;99.90;;;;;;5062300;28;20032;-69
2022/03/27 08:49:54;;;;;;;63.30;8.00;;;8.90;99.90;;;;;;5079101;28;20398;-68
2022/03/27 08:52:21;;;;;;;62.25;8.23;;;9.10;99.90;;;;;;5095750;28;20048;-68
2022/03/27 08:55:01;;;;;;;55.45;9.57;;;9.20;99.90;;;;;;5064737;28;20048;-68
2022/03/27 08:57:51;;;;;;;61.58;9.10;;;9.10;99.90;;;;;;5065970;28;20033;-68
2022/03/27 09:00:21;;;;;;;57.15;7.82;;;9.20;99.90;;;;;;5067991;28;20293;-68
2022/03/27 09:02:47;;;;;;;49.20;8.98;;;9.30;99.90;;;;;;5070082;28;20110;-67
2022/03/27 09:05:13;;;;;;;61.22;9.63;;;9.40;99.90;;;;;;5072201;28;20516;-68
2022/03/27 09:07:39;;;;;;;59.00;8.68;;;9.50;99.90;;;;;;5069977;28;20048;-68
2022/03/27 09:10:08;;;;;;;52.80;9.15;;;9.50;99.90;;;;;;5065698;28;20045;-68
2022/03/27 09:12:35;;;;;;;67.30;10.45;;;9.50;99.90;;;;;;5085148;28;20080;-68
2022/03/27 09:15:07;;;;;;;56.80;9.60;;;9.40;99.90;;;;;;5069730;28;20407;-68
2022/03/27 09:17:33;;;;;;;56.63;9.65;;;9.40;99.90;;;;;;5073996;28;20588;-68
2022/03/27 09:19:58;;;;;;;64.75;8.63;;;9.50;99.90;;;;;;5068926;28;20037;-68
2022/03/27 09:22:31;;;;;;;46.08;7.95;;;9.60;99.90;;;;;;5068514;28;20047;-68
2022/03/27 09:25:03;;;;;;;60.75;9.32;;;9.70;99.90;;;;;;5087832;28;20046;-68
2022/03/27 09:27:36;;;;;;;51.45;9.43;;;9.90;99.90;;;;;;5074957;28;20051;-69
2022/03/27 09:30:11;;;;;;;58.28;9.55;;;10.00;99.90;;;;;;5068880;28;20068;-69
2022/03/27 09:32:39;;;;;;;54.13;9.27;;;10.10;99.90;;;;;;5063265;28;20072;-69
2022/03/27 09:35:10;;;;;;;53.00;8.57;;;10.30;99.90;;;;;;5066452;28;20083;-69
2022/03/27 09:37:38;;;;;;;55.20;7.80;;;10.20;99.90;;;;;;5069910;28;20036;-69
2022/03/27 09:40:05;;;;;;;56.63;9.45;;;10.10;99.90;;;;;;5067666;28;20033;-69
2022/03/27 09:42:31;;;;;;;52.38;10.40;;;10.10;99.90;;;;;;5068144;28;20102;-69
2022/03/27 09:45:18;;;;;;;61.78;9.18;;;10.10;99.90;;;;;;5065538;28;20057;-69
2022/03/27 09:47:48;;;;;;;57.67;9.05;;;10.10;99.90;;;;;;5057935;28;20466;-69
2022/03/27 09:50:35;;;;;;;54.63;9.48;;;10.20;99.90;;;;;;5065852;28;20036;-69
2022/03/27 09:53:21;;;;;;;68.00;9.65;;;10.40;99.90;;;;;;5068765;28;20098;-69
2022/03/27 09:56:15;;;;;;;56.80;8.20;;;10.40;99.90;;;;;;5069487;28;20056;-69
2022/03/27 09:58:46;;;;;;;51.42;9.13;;;10.30;99.90;;;;;;5064768;28;20044;-69
2022/03/27 10:01:11;;;;;;;51.65;8.35;;;10.30;99.90;;;;;;5067313;28;20097;-69
2022/03/27 10:03:57;;;;;;;61.40;9.55;;;10.30;99.90;;;;;;5072656;28;20048;-68
2022/03/27 10:06:40;;;;;;;51.60;8.85;;;10.30;99.90;;;;;;5080019;28;20044;-69
2022/03/27 10:09:08;;;;;;;43.08;7.93;;;10.30;99.90;;;;;;5066251;28;20411;-69
2022/03/27 10:11:34;;;;;;;54.00;10.02;;;10.20;99.90;;;;;;5106964;27;20063;-69
2022/03/27 10:14:01;;;;;;;54.40;9.45;;;10.30;99.90;;;;;;5087370;28;20461;-68
2022/03/27 10:16:30;;;;;;;53.38;9.00;;;10.30;99.90;;;;;;5061556;28;20036;-69
2022/03/27 10:19:09;;;;;;;43.88;7.32;;;10.20;99.90;;;;;;5079049;28;20048;-69
2022/03/27 10:21:36;;;;;;;49.25;10.52;;;10.20;99.90;;;;;;5088605;28;20493;-69
2022/03/27 10:24:18;;;;;;;64.18;9.65;;;10.40;99.90;;;;;;5085255;28;20055;-68
2022/03/27 10:26:45;;;;;;;44.72;7.03;;;10.40;99.90;;;;;;5072590;28;20123;-69
2022/03/27 10:29:14;;;;;;;53.85;9.98;;;10.40;99.90;;;;;;5084369;28;20431;-69
2022/03/27 10:31:40;;;;;;;52.20;8.40;;;10.60;99.90;;;;;;5077602;28;20051;-69
2022/03/27 10:34:08;;;;;;;51.97;8.40;;;10.60;99.90;;;;;;5071268;28;20048;-68
2022/03/27 10:37:03;;;;;;;49.92;8.05;;;10.60;99.90;;;;;;5067388;28;20391;-69
2022/03/27 10:39:55;;;;;;;56.33;8.32;;;10.60;99.90;;;;;;5073187;28;20056;-69
2022/03/27 10:42:37;;;;;;;47.67;8.35;;;10.50;99.90;;;;;;5079883;28;20067;-69
2022/03/27 10:45:17;;;;;;;47.65;7.82;;;10.60;99.90;;;;;;5080594;28;20407;-69
2022/03/27 10:47:43;;;;;;;43.13;8.85;;;10.60;99.90;;;;;;5083383;28;20046;-69
2022/03/27 10:50:08;;;;;;;45.10;8.07;;;10.60;99.90;;;;;;5079996;28;20048;-69
2022/03/27 10:52:37;;;;;;;54.17;8.98;;;10.70;99.90;;;;;;5049623;28;20048;-69
2022/03/27 10:55:14;;;;;;;62.60;9.82;;;10.70;99.90;;;;;;5068276;28;20048;-69
2022/03/27 10:57:49;;;;;;;46.88;7.88;;;10.70;99.90;;;;;;5070532;28;20048;-69
2022/03/27 11:00:35;;;;;;;46.58;8.32;;;10.60;99.90;;;;;;5065862;28;20048;-69
2022/03/27 11:03:01;;;;;;;40.38;7.03;;;10.50;99.90;;;;;;5067134;28;20059;-69
2022/03/27 11:05:36;;;;;;;46.72;8.40;;;10.60;99.90;;;;;;5066453;28;20044;-69
2022/03/27 11:08:17;;;;;;;46.55;8.02;;;10.70;99.90;;;;;;5069325;28;20498;-69
2022/03/27 11:10:59;;;;;;;49.20;7.90;;;10.70;99.90;;;;;;5068302;28;20051;-69
2022/03/27 11:13:39;;;;;;;50.15;9.52;;;10.90;99.90;;;;;;5079181;28;20066;-69
2022/03/27 11:16:05;;;;;;;45.70;8.23;;;11.10;99.90;;;;;;5069228;28;20075;-69
2022/03/27 11:18:45;;;;;;;47.75;8.30;;;11.10;99.90;;;;;;5066223;28;20044;-69
2022/03/27 11:21:13;;;;;;;56.08;9.23;;;11.20;99.90;;;;;;5066868;28;20498;-69
2022/03/27 11:23:41;;;;;;;57.10;8.88;;;11.30;99.90;;;;;;5066092;28;20029;-69
2022/03/27 11:26:21;;;;;;;51.70;8.88;;;11.40;99.90;;;;;;5076063;28;20112;-69
2022/03/27 11:28:50;;;;;;;47.85;8.27;;;11.40;99.90;;;;;;5068108;28;20052;-69
2022/03/27 11:31:19;;;;;;;46.38;7.57;;;11.40;99.90;;;;;;5065249;28;20653;-68
2022/03/27 11:34:08;;;;;;;42.08;8.15;;;11.40;99.90;;;;;;5078160;28;20043;-69
2022/03/27 11:36:35;;;;;;;48.88;9.18;;;11.50;99.90;;;;;;5080294;28;20052;-69
2022/03/27 11:39:04;;;;;;;41.03;8.32;;;11.50;99.90;;;;;;5085846;28;20046;-69
2022/03/27 11:41:48;;;;;;;44.53;7.70;;;11.60;99.90;;;;;;5082916;28;20044;-68
2022/03/27 11:44:17;;;;;;;38.13;7.28;;;11.50;99.90;;;;;;5063827;28;20144;-69
2022/03/27 11:46:54;;;;;;;32.15;6.60;;;11.50;99.90;;;;;;5071852;28;20453;-69
2022/03/27 11:49:22;;;;;;;48.05;7.75;;;11.60;99.90;;;;;;5065355;28;20101;-69
2022/03/27 11:52:03;;;;;;;37.25;7.43;;;11.60;99.90;;;;;;5099283;28;20080;-69
2022/03/27 11:54:28;;;;;;;43.80;8.55;;;11.60;99.90;;;;;;5065476;28;20098;-69
2022/03/27 11:56:59;;;;;;;43.05;8.75;;;11.70;99.90;;;;;;5079317;28;20529;-69
2022/03/27 11:59:26;;;;;;;48.88;7.85;;;11.60;99.90;;;;;;5065846;28;20044;-69
2022/03/27 12:02:00;;;;;;;43.47;8.38;;;11.60;99.90;;;;;;5077912;28;20028;-69
2022/03/27 12:04:27;;;;;;;36.80;6.70;;;11.70;99.90;;;;;;5098837;28;20498;-69
2022/03/27 12:06:56;;;;;;;40.75;7.15;;;11.70;99.90;;;;;;5073021;28;20044;-69
2022/03/27 12:09:29;;;;;;;29.23;6.00;;;11.70;99.90;;;;;;5069730;28;20363;-69
2022/03/27 12:12:13;;;;;;;43.58;6.55;;;11.70;99.90;;;;;;5076461;28;20490;-69
2022/03/27 12:15:04;;;;;;;41.10;7.47;;;11.90;99.90;;;;;;5065705;28;20059;-68
2022/03/27 12:17:35;;;;;;;39.65;6.43;;;12.10;99.90;;;;;;5052856;28;20064;-69
2022/03/27 12:20:11;;;;;;;36.47;7.30;;;12.10;99.90;;;;;;5071329;28;20440;-68
2022/03/27 12:22:41;;;;;;;39.72;7.03;;;12.10;99.90;;;;;;5061653;28;20051;-68
2022/03/27 12:25:17;;;;;;;34.78;6.00;;;12.10;99.90;;;;;;5064277;28;20059;-69
2022/03/27 12:30:37;;;;;;;41.22;6.07;;;12.20;99.90;;;;;;5065940;28;20049;-68
2022/03/27 12:33:04;;;;;;;40.67;7.32;;;12.30;99.90;;;;;;5068139;28;20044;-68
2022/03/27 12:35:32;;;;;;;31.80;6.47;;;12.40;99.90;;;;;;5067050;28;20042;-69
2022/03/27 12:37:58;;;;;;;37.42;7.95;;;12.50;99.90;;;;;;5064691;28;20110;-68
2022/03/27 12:40:26;;;;;;;34.42;7.70;;;12.60;99.90;;;;;;5066372;28;20071;-68
2022/03/27 12:42:53;;;;;;;31.73;6.53;;;12.50;99.90;;;;;;5068207;28;20401;-68
2022/03/27 12:45:23;;;;;;;33.72;6.65;;;12.60;99.90;;;;;;5094735;28;20049;-69
2022/03/27 12:48:08;;;;;;;36.80;6.20;;;12.60;99.90;;;;;;5056771;28;20369;-69
2022/03/27 12:50:41;;;;;;;32.00;6.32;;;12.40;99.90;;;;;;5066321;28;20055;-68
2022/03/27 12:53:23;;;;;;;31.40;6.95;;;12.50;99.90;;;;;;5075625;28;20396;-68
2022/03/27 12:55:51;;;;;;;42.45;7.47;;;12.60;99.90;;;;;;5075687;28;20631;-68
2022/03/27 12:58:19;;;;;;;35.70;6.63;;;12.60;99.90;;;;;;5074480;28;20041;-68
2022/03/27 13:01:02;;;;;;;37.85;6.53;;;12.60;99.90;;;;;;5074907;28;20037;-68